createdAt,value
2022-10-17T00:00:21.154Z,1.14
2022-10-17T00:02:49.012Z,1.06
2022-10-17T00:05:16.807Z,0.99
2022-10-17T00:07:44.540Z,0.98
2022-10-17T00:10:17.014Z,0.93
2022-10-17T00:12:45.520Z,0.90
2022-10-17T00:15:16.076Z,0.88
2022-10-17T00:17:43.762Z,0.85
2022-10-17T00:20:12.999Z,0.82
2022-10-17T00:22:40.875Z,0.75
2022-10-17T00:25:11.346Z,0.72
2022-10-17T00:27:40.064Z,0.67
2022-10-17T00:30:14.017Z,0.61
2022-10-17T00:32:42.656Z,0.58
2022-10-17T00:35:11.961Z,0.57
2022-10-17T00:37:39.829Z,0.57
2022-10-17T00:40:08.332Z,0.57
2022-10-17T00:42:36.038Z,0.54
2022-10-17T00:45:06.427Z,0.55
2022-10-17T00:47:34.151Z,0.51
2022-10-17T00:52:30.508Z,0.46
2022-10-17T00:55:23.104Z,0.42
2022-10-17T00:57:51.141Z,0.44
2022-10-17T01:00:20.821Z,0.49
2022-10-17T01:02:48.746Z,0.45
2022-10-17T01:05:18.302Z,0.41
2022-10-17T01:07:46.145Z,0.34
2022-10-17T01:10:14.142Z,0.32
2022-10-17T01:12:48.538Z,0.32
2022-10-17T01:15:29.785Z,0.31
2022-10-17T01:18:17.554Z,0.31
2022-10-17T01:20:58.036Z,0.27
2022-10-17T01:23:46.901Z,0.26
2022-10-17T01:26:22.194Z,0.29
2022-10-17T01:29:14.181Z,0.26
2022-10-17T01:31:41.801Z,0.28
2022-10-17T01:34:13.207Z,0.26
2022-10-17T01:36:47.828Z,0.22
2022-10-17T01:39:38.440Z,0.19
2022-10-17T01:42:36.485Z,0.18
2022-10-17T01:45:16.913Z,0.20
2022-10-17T01:47:46.620Z,0.17
2022-10-17T01:50:19.309Z,0.16
2022-10-17T01:52:49.007Z,0.14
2022-10-17T01:55:28.780Z,0.13
2022-10-17T01:57:59.497Z,0.10
2022-10-17T02:00:27.683Z,0.06
2022-10-17T02:03:03.798Z,0.03
2022-10-17T02:05:33.422Z,0.02
2022-10-17T02:08:01.176Z,0.05
2022-10-17T02:10:38.778Z,0.05
2022-10-17T02:13:58.407Z,0.02
2022-10-17T02:16:47.597Z,-0.02
2022-10-17T02:19:40.091Z,-0.04
2022-10-17T02:22:12.634Z,-0.07
2022-10-17T02:24:46.200Z,-0.07
2022-10-17T02:27:35.829Z,-0.09
2022-10-17T02:30:30.281Z,-0.10
2022-10-17T02:33:06.018Z,-0.13
2022-10-17T02:35:36.240Z,-0.17
2022-10-17T02:38:04.963Z,-0.19
2022-10-17T02:40:32.725Z,-0.19
2022-10-17T02:43:03.206Z,-0.22
2022-10-17T02:45:36.237Z,-0.24
2022-10-17T02:48:14.144Z,-0.08
2022-10-17T02:51:18.897Z,0.17
2022-10-17T02:54:08.845Z,0.42
2022-10-17T02:57:15.144Z,0.54
2022-10-17T02:59:45.272Z,0.53
2022-10-17T03:02:13.376Z,0.47
2022-10-17T03:04:45.068Z,0.39
2022-10-17T03:07:13.202Z,0.37
2022-10-17T03:09:41.544Z,0.34
2022-10-17T03:12:11.403Z,0.31
2022-10-17T03:14:39.953Z,0.27
2022-10-17T03:17:07.909Z,0.21
2022-10-17T03:19:36.483Z,0.14
2022-10-17T03:22:05.190Z,0.15
2022-10-17T03:24:35.289Z,0.41
2022-10-17T03:27:03.349Z,0.53
2022-10-17T03:29:31.686Z,0.57
2022-10-17T03:31:59.518Z,0.50
2022-10-17T03:34:27.073Z,0.46
2022-10-17T03:36:55.295Z,0.40
2022-10-17T03:39:23.377Z,0.31
2022-10-17T03:41:52.807Z,0.31
2022-10-17T03:44:20.957Z,0.37
2022-10-17T03:46:49.394Z,0.39
2022-10-17T03:49:17.847Z,0.36
2022-10-17T03:51:45.482Z,0.45
2022-10-17T03:54:15.672Z,0.49
2022-10-17T03:56:44.075Z,0.42
2022-10-17T03:59:15.542Z,0.35
2022-10-17T04:01:49.508Z,0.43
2022-10-17T04:04:17.613Z,0.55
2022-10-17T04:06:45.669Z,0.58
2022-10-17T04:09:14.692Z,0.59
2022-10-17T04:12:02.584Z,0.59
2022-10-17T04:14:31.390Z,0.54
2022-10-17T04:16:59.651Z,0.53
2022-10-17T04:19:28.211Z,0.51
2022-10-17T04:22:01.073Z,0.47
2022-10-17T04:24:30.467Z,0.48
2022-10-17T04:27:12.436Z,0.50
2022-10-17T04:29:44.492Z,0.51
2022-10-17T04:32:17.613Z,0.53
2022-10-17T04:34:51.226Z,0.58
2022-10-17T04:37:21.085Z,0.64
2022-10-17T04:39:50.946Z,0.73
2022-10-17T04:42:18.548Z,0.79
2022-10-17T04:44:47.726Z,0.85
2022-10-17T04:47:18.041Z,0.92
2022-10-17T04:49:45.731Z,0.97
2022-10-17T04:52:15.173Z,1.00
2022-10-17T04:54:49.200Z,1.05
2022-10-17T04:57:18.796Z,1.12
2022-10-17T05:00:15.939Z,1.24
2022-10-17T05:03:01.212Z,1.39
2022-10-17T05:05:30.666Z,1.52
2022-10-17T05:07:58.834Z,1.67
2022-10-17T05:10:30.796Z,1.77
2022-10-17T05:13:00.275Z,1.94
2022-10-17T05:15:31.594Z,2.09
2022-10-17T05:17:59.809Z,2.23
2022-10-17T05:20:29.822Z,2.39
2022-10-17T05:23:00.745Z,2.53
2022-10-17T05:25:33.314Z,2.66
2022-10-17T05:28:01.083Z,2.79
2022-10-17T05:30:30.646Z,2.93
2022-10-17T05:33:01.917Z,3.04
2022-10-17T05:35:29.972Z,3.19
2022-10-17T05:37:58.495Z,3.34
2022-10-17T05:40:26.580Z,3.49
2022-10-17T05:42:57.111Z,3.65
2022-10-17T05:45:25.806Z,3.82
2022-10-17T05:47:53.636Z,4.00
2022-10-17T05:50:22.239Z,4.18
2022-10-17T05:53:02.632Z,4.35
2022-10-17T05:55:30.841Z,4.56
2022-10-17T05:58:00.873Z,4.70
2022-10-17T06:00:34.328Z,4.86
2022-10-17T06:03:02.222Z,5.06
2022-10-17T06:05:30.152Z,5.21
2022-10-17T06:08:01.817Z,5.35
2022-10-17T06:10:33.615Z,5.49
2022-10-17T06:13:01.480Z,5.56
2022-10-17T06:15:29.849Z,5.62
2022-10-17T06:18:07.171Z,5.76
2022-10-17T06:20:35.393Z,5.90
2022-10-17T06:23:03.644Z,5.92
2022-10-17T06:25:48.968Z,6.06
2022-10-17T06:28:17.157Z,6.21
2022-10-17T06:30:45.278Z,6.28
2022-10-17T06:33:13.195Z,6.46
2022-10-17T06:35:40.889Z,6.55
2022-10-17T06:38:08.821Z,6.63
2022-10-17T06:40:37.680Z,6.67
2022-10-17T06:43:05.411Z,6.78
2022-10-17T06:45:48.471Z,6.80
2022-10-17T06:48:24.109Z,6.94
2022-10-17T06:51:12.476Z,6.99
2022-10-17T06:53:50.610Z,7.17
2022-10-17T06:56:46.369Z,7.25
2022-10-17T06:59:32.660Z,7.40
2022-10-17T07:02:06.923Z,7.51
2022-10-17T07:04:34.654Z,7.57
2022-10-17T07:07:05.094Z,7.69
2022-10-17T07:09:35.167Z,7.76
2022-10-17T07:12:08.663Z,7.90
2022-10-17T07:14:38.196Z,7.99
2022-10-17T07:17:06.315Z,8.02
2022-10-17T07:19:34.073Z,8.15
2022-10-17T07:22:01.875Z,8.21
2022-10-17T07:24:31.175Z,8.39
2022-10-17T07:27:07.224Z,8.50
2022-10-17T07:29:35.613Z,8.55
2022-10-17T07:32:10.410Z,8.69
2022-10-17T07:34:38.649Z,8.73
2022-10-17T07:37:08.308Z,8.91
2022-10-17T07:39:36.873Z,9.02
2022-10-17T07:42:07.594Z,9.14
2022-10-17T07:44:36.498Z,9.15
2022-10-17T07:47:04.844Z,9.17
2022-10-17T07:49:32.656Z,9.27
2022-10-17T07:52:00.275Z,9.38
2022-10-17T07:54:27.933Z,9.43
2022-10-17T07:56:56.422Z,9.55
2022-10-17T07:59:24.580Z,9.64
2022-10-17T08:01:56.009Z,9.67
2022-10-17T08:04:24.043Z,9.67
2022-10-17T08:06:56.462Z,9.77
2022-10-17T08:09:28.486Z,9.83
2022-10-17T08:11:56.175Z,9.94
2022-10-17T08:14:24.076Z,10.04
2022-10-17T08:16:55.297Z,10.17
2022-10-17T08:19:24.569Z,10.24
2022-10-17T08:21:54.852Z,10.27
2022-10-17T08:24:22.597Z,10.40
2022-10-17T08:26:51.906Z,10.56
2022-10-17T08:29:19.975Z,10.56
2022-10-17T08:31:49.916Z,10.49
2022-10-17T08:34:18.984Z,10.59
2022-10-17T08:36:46.847Z,10.76
2022-10-17T08:39:15.371Z,10.94
2022-10-17T08:42:25.649Z,11.06
2022-10-17T08:45:01.743Z,11.12
2022-10-17T08:47:35.591Z,11.17
2022-10-17T08:50:06.064Z,11.16
2022-10-17T08:52:46.927Z,11.22
2022-10-17T08:55:41.278Z,11.34
2022-10-17T08:58:31.521Z,11.39
2022-10-17T09:01:25.572Z,11.48
2022-10-17T09:04:18.166Z,11.64
2022-10-17T09:07:18.520Z,11.63
2022-10-17T09:09:53.720Z,11.69
2022-10-17T09:12:25.312Z,11.66
2022-10-17T09:15:21.694Z,11.84
2022-10-17T09:17:55.340Z,11.86
2022-10-17T09:20:25.627Z,11.87
2022-10-17T09:23:04.301Z,12.05
2022-10-17T09:25:41.180Z,11.94
2022-10-17T09:28:10.463Z,12.02
2022-10-17T09:31:08.159Z,12.23
2022-10-17T09:33:53.843Z,12.33
2022-10-17T09:36:41.308Z,12.37
2022-10-17T09:39:15.537Z,12.43
2022-10-17T09:41:52.198Z,12.52
2022-10-17T09:44:41.625Z,12.71
2022-10-17T09:47:41.527Z,12.88
2022-10-17T09:50:28.534Z,12.87
2022-10-17T09:52:57.285Z,12.85
2022-10-17T09:55:40.300Z,12.98
2022-10-17T09:58:11.288Z,12.99
2022-10-17T10:00:47.624Z,13.14
2022-10-17T10:03:25.754Z,13.32
2022-10-17T10:06:04.405Z,13.32
2022-10-17T10:08:34.393Z,13.55
2022-10-17T10:11:05.628Z,13.70
2022-10-17T10:13:34.376Z,13.80
2022-10-17T10:16:20.709Z,13.89
2022-10-17T10:18:50.951Z,13.85
2022-10-17T10:21:25.663Z,13.81
2022-10-17T10:23:59.822Z,13.82
2022-10-17T10:26:47.843Z,13.98
2022-10-17T10:29:35.427Z,13.90
2022-10-17T10:32:23.031Z,13.96
2022-10-17T10:34:56.893Z,14.17
2022-10-17T10:37:38.125Z,14.34
2022-10-17T10:40:16.585Z,14.46
2022-10-17T10:42:50.110Z,14.41
2022-10-17T10:45:43.315Z,14.34
2022-10-17T10:48:26.341Z,14.21
2022-10-17T10:51:01.316Z,14.29
2022-10-17T10:53:35.688Z,14.43
2022-10-17T10:56:09.233Z,14.56
2022-10-17T10:58:45.815Z,14.62
2022-10-17T11:01:22.417Z,14.71
2022-10-17T11:04:14.045Z,14.85
2022-10-17T11:06:42.761Z,14.92
2022-10-17T11:09:47.986Z,15.04
2022-10-17T11:12:52.056Z,15.12
2022-10-17T11:15:35.930Z,15.11
2022-10-17T11:18:09.964Z,15.27
2022-10-17T11:20:48.154Z,15.29
2022-10-17T11:23:39.839Z,15.36
2022-10-17T11:26:14.116Z,15.39
2022-10-17T11:28:42.137Z,15.42
2022-10-17T11:31:12.980Z,15.47
2022-10-17T11:34:00.036Z,15.38
2022-10-17T11:36:30.393Z,15.44
2022-10-17T11:39:12.081Z,15.67
2022-10-17T11:41:55.417Z,15.83
2022-10-17T11:44:29.100Z,16.01
2022-10-17T11:46:59.124Z,16.32
2022-10-17T11:49:35.459Z,16.64
2022-10-17T11:52:44.404Z,16.96
2022-10-17T11:55:27.006Z,17.22
2022-10-17T11:58:13.116Z,17.37
2022-10-17T12:00:49.821Z,17.87
2022-10-17T12:03:29.661Z,17.97
2022-10-17T12:06:13.628Z,18.25
2022-10-17T12:08:59.820Z,18.26
2022-10-17T12:11:55.803Z,18.73
2022-10-17T12:14:33.731Z,18.64
2022-10-17T12:17:03.659Z,18.67
2022-10-17T12:19:35.695Z,18.97
2022-10-17T12:22:18.996Z,19.23
2022-10-17T12:24:57.992Z,19.40
2022-10-17T12:27:38.113Z,19.41
2022-10-17T12:30:11.691Z,19.79
2022-10-17T12:33:05.608Z,19.51
2022-10-17T12:35:35.884Z,19.29
2022-10-17T12:38:19.324Z,19.33
2022-10-17T12:40:50.190Z,19.49
2022-10-17T12:43:18.075Z,19.19
2022-10-17T12:45:48.510Z,19.48
2022-10-17T12:48:36.340Z,19.83
2022-10-17T12:51:34.251Z,19.68
2022-10-17T12:54:07.222Z,19.60
2022-10-17T12:56:37.242Z,19.83
2022-10-17T12:59:15.471Z,19.96
2022-10-17T13:01:46.344Z,20.11
2022-10-17T13:04:14.350Z,19.80
2022-10-17T13:06:49.895Z,20.05
2022-10-17T13:09:31.652Z,19.96
2022-10-17T13:12:01.959Z,19.83
2022-10-17T13:14:30.429Z,20.03
2022-10-17T13:17:02.555Z,20.00
2022-10-17T13:19:32.314Z,19.94
2022-10-17T13:22:06.356Z,20.00
2022-10-17T13:24:39.202Z,20.31
2022-10-17T13:27:25.989Z,20.30
2022-10-17T13:29:56.449Z,20.34
2022-10-17T13:32:25.311Z,20.35
2022-10-17T13:35:07.993Z,20.48
2022-10-17T13:37:36.083Z,20.57
2022-10-17T13:40:16.194Z,20.40
2022-10-17T13:42:54.596Z,20.26
2022-10-17T13:45:33.414Z,19.87
2022-10-17T13:48:02.558Z,19.94
2022-10-17T13:50:44.566Z,19.49
2022-10-17T13:53:32.405Z,19.56
2022-10-17T13:56:27.813Z,19.47
2022-10-17T13:59:03.698Z,19.30
2022-10-17T14:01:34.405Z,18.69
2022-10-17T14:04:09.379Z,18.14
2022-10-17T14:06:45.193Z,17.23
2022-10-17T14:09:26.136Z,16.42
2022-10-17T14:12:04.505Z,15.72
2022-10-17T14:14:51.753Z,15.12
2022-10-17T14:17:25.824Z,14.54
2022-10-17T14:20:14.171Z,14.03
2022-10-17T14:22:50.449Z,13.52
2022-10-17T14:25:32.560Z,13.09
2022-10-17T14:28:08.036Z,12.68
2022-10-17T14:33:28.543Z,11.94
2022-10-17T14:35:58.253Z,11.66
2022-10-17T14:38:25.848Z,11.39
2022-10-17T14:41:09.604Z,11.15
2022-10-17T14:43:43.127Z,10.89
2022-10-17T14:46:15.020Z,10.68
2022-10-17T14:48:43.406Z,10.43
2022-10-17T14:51:16.517Z,10.19
2022-10-17T14:54:05.505Z,9.92
2022-10-17T14:56:41.045Z,9.67
2022-10-17T14:59:12.621Z,9.46
2022-10-17T15:01:46.709Z,9.23
2022-10-17T15:04:14.423Z,9.03
2022-10-17T15:06:42.801Z,8.87
2022-10-17T15:09:11.853Z,8.71
2022-10-17T15:11:40.473Z,8.54
2022-10-17T15:14:08.300Z,8.37
2022-10-17T15:16:37.263Z,8.21
2022-10-17T15:19:04.865Z,8.09
2022-10-17T15:21:43.377Z,7.97
2022-10-17T15:24:16.042Z,7.83
2022-10-17T15:26:43.677Z,7.70
2022-10-17T15:29:15.045Z,7.59
2022-10-17T15:31:43.452Z,7.47
2022-10-17T15:34:11.040Z,7.36
2022-10-17T15:36:42.381Z,7.29
2022-10-17T15:39:10.932Z,7.20
2022-10-17T15:41:38.554Z,7.09
2022-10-17T15:44:06.208Z,6.98
2022-10-17T15:46:35.106Z,6.92
2022-10-17T15:49:09.422Z,6.87
2022-10-17T15:51:38.226Z,6.81
2022-10-17T15:54:06.497Z,6.72
2022-10-17T15:56:40.450Z,6.63
2022-10-17T15:59:19.191Z,6.52
2022-10-17T16:01:46.881Z,6.40
2022-10-17T16:04:16.563Z,6.32
2022-10-17T16:06:44.537Z,6.24
2022-10-17T16:09:13.708Z,6.16
2022-10-17T16:11:42.913Z,6.09
2022-10-17T16:14:12.609Z,6.03
2022-10-17T16:16:41.945Z,5.95
2022-10-17T16:19:12.432Z,5.87
2022-10-17T16:21:40.918Z,5.81
2022-10-17T16:24:12.325Z,5.74
2022-10-17T16:26:41.393Z,5.69
2022-10-17T16:29:10.280Z,5.63
2022-10-17T16:31:41.120Z,5.55
2022-10-17T16:34:09.132Z,5.51
2022-10-17T16:36:36.844Z,5.47
2022-10-17T16:39:06.228Z,5.43
2022-10-17T16:41:38.040Z,5.40
2022-10-17T16:44:11.142Z,5.35
2022-10-17T16:46:38.968Z,5.30
2022-10-17T16:49:06.634Z,5.25
2022-10-17T16:51:36.049Z,5.22
2022-10-17T16:54:04.718Z,5.14
2022-10-17T16:56:35.430Z,5.09
2022-10-17T16:59:03.116Z,5.07
2022-10-17T17:01:30.794Z,5.02
2022-10-17T17:03:58.537Z,5.05
2022-10-17T17:06:29.578Z,5.02
2022-10-17T17:09:02.233Z,4.95
2022-10-17T17:11:29.955Z,4.91
2022-10-17T17:13:59.411Z,4.91
2022-10-17T17:16:30.037Z,4.87
2022-10-17T17:19:05.356Z,4.85
2022-10-17T17:21:34.698Z,4.84
2022-10-17T17:24:03.009Z,4.83
2022-10-17T17:26:32.740Z,4.79
2022-10-17T17:29:00.506Z,4.77
2022-10-17T17:31:30.226Z,4.73
2022-10-17T17:33:58.063Z,4.67
2022-10-17T17:36:31.056Z,4.64
2022-10-17T17:38:59.585Z,4.59
2022-10-17T17:41:27.522Z,4.56
2022-10-17T17:43:56.084Z,4.57
2022-10-17T17:46:24.417Z,4.56
2022-10-17T17:48:52.876Z,4.54
2022-10-17T17:51:25.410Z,4.48
2022-10-17T17:53:56.070Z,4.44
2022-10-17T17:56:26.756Z,4.39
2022-10-17T17:58:59.538Z,4.35
2022-10-17T18:01:30.138Z,4.37
2022-10-17T18:04:01.556Z,4.35
2022-10-17T18:06:29.546Z,4.30
2022-10-17T18:08:58.188Z,4.27
2022-10-17T18:11:27.905Z,4.20
2022-10-17T18:14:01.600Z,4.18
2022-10-17T18:16:32.501Z,4.22
2022-10-17T18:19:06.674Z,4.17
2022-10-17T18:21:35.788Z,4.17
2022-10-17T18:24:05.037Z,4.14
2022-10-17T18:26:32.840Z,4.10
2022-10-17T18:29:00.937Z,4.11
2022-10-17T18:31:32.322Z,4.09
2022-10-17T18:34:00.452Z,4.02
2022-10-17T18:36:29.232Z,3.99
2022-10-17T18:38:57.348Z,3.97
2022-10-17T18:41:25.991Z,3.97
2022-10-17T18:43:54.251Z,3.95
2022-10-17T18:46:23.974Z,3.93
2022-10-17T18:48:52.090Z,3.92
2022-10-17T18:51:21.358Z,3.91
2022-10-17T18:53:50.583Z,3.88
2022-10-17T18:56:18.751Z,3.83
2022-10-17T18:58:47.598Z,3.82
2022-10-17T19:01:20.095Z,3.83
2022-10-17T19:03:48.740Z,3.80
2022-10-17T19:06:21.593Z,3.82
2022-10-17T19:08:49.211Z,3.79
2022-10-17T19:11:20.325Z,3.78
2022-10-17T19:13:48.031Z,3.75
2022-10-17T19:16:21.523Z,3.77
2022-10-17T19:18:54.125Z,3.80
2022-10-17T19:21:22.413Z,3.81
2022-10-17T19:23:55.604Z,3.78
2022-10-17T19:26:23.553Z,3.75
2022-10-17T19:28:54.402Z,3.76
2022-10-17T19:31:26.828Z,3.72
2022-10-17T19:33:55.813Z,3.68
2022-10-17T19:36:28.950Z,3.67
2022-10-17T19:39:00.737Z,3.67
2022-10-17T19:41:28.596Z,3.64
2022-10-17T19:43:56.327Z,3.65
2022-10-17T19:46:26.618Z,3.65
2022-10-17T19:48:54.280Z,3.65
2022-10-17T19:51:24.650Z,3.63
2022-10-17T19:53:53.722Z,3.58
2022-10-17T19:56:21.928Z,3.54
2022-10-17T19:58:50.570Z,3.50
2022-10-17T20:01:23.064Z,3.48
2022-10-17T20:03:52.564Z,3.45
2022-10-17T20:06:20.244Z,3.47
2022-10-17T20:08:49.100Z,3.46
2022-10-17T20:11:22.136Z,3.45
2022-10-17T20:13:49.880Z,3.43
2022-10-17T20:16:24.828Z,3.42
2022-10-17T20:18:54.756Z,3.42
2022-10-17T20:21:27.475Z,3.39
2022-10-17T20:23:55.247Z,3.38
2022-10-17T20:26:37.714Z,3.34
2022-10-17T20:29:11.327Z,3.32
2022-10-17T20:31:39.865Z,3.26
2022-10-17T20:34:07.799Z,3.27
2022-10-17T20:36:37.597Z,3.24
2022-10-17T20:39:05.950Z,3.24
2022-10-17T20:41:34.678Z,3.27
2022-10-17T20:44:02.745Z,3.27
2022-10-17T20:46:36.787Z,3.30
2022-10-17T20:49:06.537Z,3.30
2022-10-17T20:51:34.855Z,3.29
2022-10-17T20:54:03.218Z,3.28
2022-10-17T20:56:32.250Z,3.25
2022-10-17T20:59:02.379Z,3.17
2022-10-17T21:01:31.337Z,3.13
2022-10-17T21:04:06.069Z,3.12
2022-10-17T21:06:39.323Z,3.16
2022-10-17T21:09:08.194Z,3.18
2022-10-17T21:11:36.867Z,3.15
2022-10-17T21:14:07.579Z,3.06
2022-10-17T21:16:37.176Z,3.03
2022-10-17T21:19:05.296Z,3.04
2022-10-17T21:21:36.086Z,2.97
2022-10-17T21:24:12.554Z,2.93
2022-10-17T21:26:40.988Z,2.88
2022-10-17T21:29:08.705Z,2.87
2022-10-17T21:31:37.369Z,2.84
2022-10-17T21:34:06.692Z,2.79
2022-10-17T21:36:35.615Z,2.73
2022-10-17T21:39:04.038Z,2.72
2022-10-17T21:41:32.330Z,2.74
2022-10-17T21:44:04.728Z,2.70
2022-10-17T21:46:32.664Z,2.67
2022-10-17T21:49:00.973Z,2.66
2022-10-17T21:51:28.774Z,2.69
2022-10-17T21:53:57.432Z,2.69
2022-10-17T21:56:30.871Z,2.72
2022-10-17T21:58:59.980Z,2.74
2022-10-17T22:01:32.527Z,2.75
2022-10-17T22:04:02.320Z,2.74
2022-10-17T22:06:40.225Z,2.69
2022-10-17T22:09:15.621Z,2.69
2022-10-17T22:11:47.235Z,2.69
2022-10-17T22:14:17.098Z,2.70
2022-10-17T22:16:48.013Z,2.70
2022-10-17T22:19:17.563Z,2.66
2022-10-17T22:21:47.556Z,2.64
2022-10-17T22:24:16.247Z,2.62
2022-10-17T22:26:44.774Z,2.57
2022-10-17T22:29:12.899Z,2.54
2022-10-17T22:31:41.662Z,2.51
2022-10-17T22:34:10.814Z,2.49
2022-10-17T22:36:38.338Z,2.43
2022-10-17T22:39:06.092Z,2.37
2022-10-17T22:41:34.087Z,2.35
2022-10-17T22:44:01.884Z,2.29
2022-10-17T22:46:30.238Z,2.24
2022-10-17T22:48:58.418Z,2.26
2022-10-17T22:51:26.014Z,2.22
2022-10-17T22:53:56.999Z,2.19
2022-10-17T22:56:24.636Z,2.18
2022-10-17T22:58:52.436Z,2.18
2022-10-17T23:01:22.997Z,2.17
2022-10-17T23:03:51.503Z,2.15
2022-10-17T23:06:19.453Z,2.10
2022-10-17T23:08:49.117Z,2.09
2022-10-17T23:11:16.868Z,2.07
2022-10-17T23:13:45.211Z,2.07
2022-10-17T23:16:12.905Z,2.08
2022-10-17T23:18:41.195Z,2.07
2022-10-17T23:21:10.238Z,2.05
2022-10-17T23:23:38.480Z,2.05
2022-10-17T23:26:07.625Z,2.05
2022-10-17T23:28:36.152Z,2.05
2022-10-17T23:31:14.208Z,2.06
2022-10-17T23:33:42.848Z,2.07
2022-10-17T23:36:11.189Z,2.07
2022-10-17T23:38:39.984Z,2.04
2022-10-17T23:41:07.719Z,2.01
2022-10-17T23:43:35.648Z,2.01
2022-10-17T23:46:03.687Z,1.98
2022-10-17T23:48:31.552Z,1.96
2022-10-17T23:50:59.185Z,1.91
2022-10-17T23:53:27.262Z,1.86
2022-10-17T23:55:54.809Z,1.83
2022-10-17T23:58:22.646Z,1.81
